Time;durP1;ratioP1;P1;durP2;ratioP2;P2;SDS_P1;SDS_P2;PMS_P1;PMS_P2;Temp;Humidity;BMP_temperature;BMP_pressure;BME280_temperature;BME280_humidity;BME280_pressure;Samples;Min_cycle;Max_cycle;Signal;HPM_P1;HPM_P2
2021/12/11 00:01:37;;;;;;;34.58;15.43;;;;;;;;;;5094130;28;20047;-78
2021/12/11 00:04:06;;;;;;;34.35;16.13;;;;;;;;;;5093858;28;20342;-79
2021/12/11 00:06:36;;;;;;;33.33;15.55;;;;;;;;;;5109814;28;20100;-79
2021/12/11 00:09:10;;;;;;;32.83;16.35;;;;;;;;;;5110756;28;20448;-79
2021/12/11 00:11:38;;;;;;;35.20;16.25;;;;;;;;;;5110205;28;20039;-79
2021/12/11 00:14:05;;;;;;;32.15;15.68;;;;;;;;;;5110279;28;20040;-79
2021/12/11 00:16:33;;;;;;;34.55;15.95;;;;;;;;;;5110333;28;20482;-79
2021/12/11 00:19:02;;;;;;;37.00;16.67;;;;;;;;;;5093474;28;20039;-79
2021/12/11 00:21:29;;;;;;;33.15;16.42;;;;;;;;;;5109967;28;20483;-79
2021/12/11 00:24:04;;;;;;;36.28;17.55;;;;;;;;;;5110110;28;20047;-79
2021/12/11 00:26:37;;;;;;;36.60;17.77;;;;;;;;;;5109755;28;20046;-79
2021/12/11 00:29:04;;;;;;;37.03;17.33;;;;;;;;;;5093247;28;20054;-79
2021/12/11 00:31:31;;;;;;;33.00;15.73;;;;;;;;;;5092806;28;20123;-79
2021/12/11 00:33:58;;;;;;;36.45;16.52;;;;;;;;;;5111467;28;20509;-81
2021/12/11 00:36:31;;;;;;;35.70;16.85;;;;;;;;;;5127109;27;20044;-79
2021/12/11 00:39:01;;;;;;;38.67;16.92;;;;;;;;;;5109741;28;20079;-81
2021/12/11 00:41:31;;;;;;;36.85;16.05;;;;;;;;;;5109399;28;20040;-79
2021/12/11 00:44:01;;;;;;;34.95;15.82;;;;;;;;;;5093317;28;20062;-79
2021/12/11 00:46:27;;;;;;;36.13;16.52;;;;;;;;;;5109555;28;20079;-79
2021/12/11 00:48:54;;;;;;;29.83;15.35;;;;;;;;;;5109023;28;20055;-79
2021/12/11 00:51:21;;;;;;;35.25;16.50;;;;;;;;;;5109873;28;20568;-81
2021/12/11 00:53:53;;;;;;;36.15;16.02;;;;;;;;;;5109049;28;20108;-79
2021/12/11 00:56:24;;;;;;;32.00;14.95;;;;;;;;;;5109509;28;20035;-79
2021/12/11 00:58:51;;;;;;;37.42;15.88;;;;;;;;;;5109090;28;20042;-79
2021/12/11 01:01:19;;;;;;;36.60;16.30;;;;;;;;;;5109572;28;20436;-81
2021/12/11 01:03:54;;;;;;;34.28;16.23;;;;;;;;;;5109080;28;20158;-81
2021/12/11 01:06:23;;;;;;;34.60;15.83;;;;;;;;;;5109445;28;20039;-81
2021/12/11 01:08:55;;;;;;;34.08;17.05;;;;;;;;;;5108816;28;20047;-81
2021/12/11 01:11:41;;;;;;;37.88;17.15;;;;;;;;;;5109056;28;20079;-81
2021/12/11 01:14:14;;;;;;;41.28;18.08;;;;;;;;;;5109303;28;20043;-81
2021/12/11 01:16:41;;;;;;;37.30;17.10;;;;;;;;;;5108787;28;20047;-81
2021/12/11 01:19:16;;;;;;;37.50;18.38;;;;;;;;;;5126536;27;20036;-81
2021/12/11 01:21:45;;;;;;;33.42;17.25;;;;;;;;;;5076004;28;20588;-81
2021/12/11 01:25:02;;;;;;;45.13;18.70;;;;;;;;;;5108514;28;20051;-81
2021/12/11 01:27:03;;;;;;;36.90;16.40;;;;;;;;;;5094562;28;20044;-81
2021/12/11 01:29:32;;;;;;;34.42;16.60;;;;;;;;;;5100055;28;20101;-81
2021/12/11 01:31:58;;;;;;;38.25;16.95;;;;;;;;;;5071599;28;20550;-81
2021/12/11 01:34:26;;;;;;;34.05;15.40;;;;;;;;;;5071696;28;20047;-81
2021/12/11 01:36:52;;;;;;;30.48;15.23;;;;;;;;;;5087857;28;20043;-81
2021/12/11 01:39:21;;;;;;;34.15;15.02;;;;;;;;;;5088800;28;20044;-81
2021/12/11 01:41:52;;;;;;;33.92;15.95;;;;;;;;;;5087982;28;20051;-81
2021/12/11 01:44:29;;;;;;;33.50;14.95;;;;;;;;;;5088579;28;20044;-81
2021/12/11 01:47:04;;;;;;;34.40;16.42;;;;;;;;;;5071011;28;20040;-81
2021/12/11 01:49:31;;;;;;;36.65;16.83;;;;;;;;;;5088663;28;20052;-81
2021/12/11 01:52:06;;;;;;;33.65;15.98;;;;;;;;;;5087758;28;20392;-81
2021/12/11 01:54:35;;;;;;;30.85;15.25;;;;;;;;;;5089629;28;20483;-79
2021/12/11 01:57:04;;;;;;;30.95;14.65;;;;;;;;;;5088268;28;20110;-81
2021/12/11 01:59:36;;;;;;;35.78;15.60;;;;;;;;;;5088490;28;20043;-79
2021/12/11 02:02:08;;;;;;;31.80;14.90;;;;;;;;;;5071399;28;20040;-81
2021/12/11 02:04:41;;;;;;;31.95;15.02;;;;;;;;;;5071264;28;20047;-79
2021/12/11 02:07:09;;;;;;;30.42;15.68;;;;;;;;;;5088543;28;20452;-79
2021/12/11 02:09:37;;;;;;;31.13;14.90;;;;;;;;;;5088206;28;20054;-79
2021/12/11 02:12:06;;;;;;;28.42;14.43;;;;;;;;;;5087907;28;20047;-79
2021/12/11 02:14:38;;;;;;;29.73;14.80;;;;;;;;;;5071720;28;20036;-79
2021/12/11 02:17:04;;;;;;;33.97;15.35;;;;;;;;;;5071260;28;20043;-79
2021/12/11 02:19:34;;;;;;;33.38;16.20;;;;;;;;;;5089833;28;20043;-79
2021/12/11 02:22:03;;;;;;;39.00;16.67;;;;;;;;;;5071348;28;20060;-79
2021/12/11 02:24:34;;;;;;;33.55;15.73;;;;;;;;;;5071268;28;20046;-79
2021/12/11 02:27:00;;;;;;;34.17;17.05;;;;;;;;;;5089294;28;20040;-79
2021/12/11 02:29:36;;;;;;;33.40;14.40;;;;;;;;;;5090412;28;20043;-82
2021/12/11 02:32:02;;;;;;;38.33;16.88;;;;;;;;;;5108582;28;20051;-79
2021/12/11 02:34:39;;;;;;;34.60;15.90;;;;;;;;;;5108654;28;20177;-82
2021/12/11 02:37:10;;;;;;;37.88;16.83;;;;;;;;;;5091010;28;20075;-82
2021/12/11 02:39:49;;;;;;;42.05;18.23;;;;;;;;;;5108262;28;20040;-82
2021/12/11 02:42:18;;;;;;;35.08;16.55;;;;;;;;;;5108696;28;20440;-82
2021/12/11 02:44:49;;;;;;;39.70;18.30;;;;;;;;;;5108367;28;20047;-82
2021/12/11 02:47:19;;;;;;;39.05;18.90;;;;;;;;;;5108432;28;20067;-82
2021/12/11 02:49:55;;;;;;;39.03;19.10;;;;;;;;;;5108963;28;20119;-82
2021/12/11 02:52:24;;;;;;;36.65;17.90;;;;;;;;;;5108028;28;20069;-82
2021/12/11 02:54:57;;;;;;;40.17;17.17;;;;;;;;;;5090511;28;20043;-82
2021/12/11 02:57:31;;;;;;;36.15;16.92;;;;;;;;;;5108252;28;20123;-82
2021/12/11 03:00:06;;;;;;;36.90;16.95;;;;;;;;;;5090807;28;20035;-82
2021/12/11 03:02:32;;;;;;;38.20;17.67;;;;;;;;;;5101273;28;20161;-79
2021/12/11 03:05:08;;;;;;;54.55;21.27;;;;;;;;;;5111812;28;20043;-79
2021/12/11 03:07:37;;;;;;;44.50;18.90;;;;;;;;;;5110707;28;20557;-79
2021/12/11 03:10:06;;;;;;;44.30;18.88;;;;;;;;;;5111606;28;20054;-78
2021/12/11 03:12:32;;;;;;;48.75;20.77;;;;;;;;;;5111895;28;20387;-79
2021/12/11 03:14:58;;;;;;;47.20;20.48;;;;;;;;;;5111649;28;20039;-79
2021/12/11 03:17:27;;;;;;;44.70;19.73;;;;;;;;;;5111864;28;20539;-79
2021/12/11 03:19:53;;;;;;;46.25;19.73;;;;;;;;;;5111127;28;20050;-79
2021/12/11 03:22:21;;;;;;;46.20;19.65;;;;;;;;;;5111719;28;20058;-79
2021/12/11 03:24:48;;;;;;;43.55;19.23;;;;;;;;;;5111852;28;20394;-79
2021/12/11 03:27:15;;;;;;;45.95;18.60;;;;;;;;;;5111062;28;20096;-79
2021/12/11 03:29:42;;;;;;;41.58;18.05;;;;;;;;;;5111183;28;20051;-79
2021/12/11 03:32:10;;;;;;;38.70;17.42;;;;;;;;;;5111320;28;20085;-79
2021/12/11 03:34:37;;;;;;;39.17;17.95;;;;;;;;;;5111382;28;20044;-79
2021/12/11 03:37:05;;;;;;;42.03;19.02;;;;;;;;;;5094336;28;20085;-79
2021/12/11 03:39:33;;;;;;;46.85;18.88;;;;;;;;;;5112645;28;20042;-79
2021/12/11 03:42:01;;;;;;;40.75;18.88;;;;;;;;;;5094177;28;20040;-79
2021/12/11 03:44:32;;;;;;;47.83;20.55;;;;;;;;;;5111670;28;20403;-79
2021/12/11 03:47:00;;;;;;;45.22;19.45;;;;;;;;;;5111072;28;20053;-79
2021/12/11 03:49:27;;;;;;;42.00;18.67;;;;;;;;;;5111872;28;20433;-79
2021/12/11 03:51:53;;;;;;;43.85;20.35;;;;;;;;;;5110511;28;20073;-79
2021/12/11 03:54:25;;;;;;;47.13;20.23;;;;;;;;;;5094455;28;20047;-79
2021/12/11 03:56:52;;;;;;;46.65;21.25;;;;;;;;;;5110413;28;20040;-79
2021/12/11 03:59:18;;;;;;;45.03;21.92;;;;;;;;;;5094687;28;20392;-79
2021/12/11 04:01:46;;;;;;;49.63;21.40;;;;;;;;;;5112247;28;20062;-79
2021/12/11 04:04:26;;;;;;;46.58;20.77;;;;;;;;;;5111379;28;20534;-79
2021/12/11 04:06:53;;;;;;;48.38;20.95;;;;;;;;;;5110608;28;20059;-79
2021/12/11 04:09:20;;;;;;;48.15;21.63;;;;;;;;;;5094596;28;20043;-79
2021/12/11 04:11:47;;;;;;;52.47;20.73;;;;;;;;;;5110360;28;20035;-79
2021/12/11 04:14:15;;;;;;;50.13;21.90;;;;;;;;;;5110745;28;20040;-79
2021/12/11 04:16:41;;;;;;;52.58;21.95;;;;;;;;;;5093662;28;20036;-83
2021/12/11 04:19:08;;;;;;;53.97;22.45;;;;;;;;;;5110730;28;20436;-79
2021/12/11 04:21:34;;;;;;;56.83;21.98;;;;;;;;;;5110645;28;20056;-79
2021/12/11 04:24:01;;;;;;;52.00;21.00;;;;;;;;;;5110773;28;20549;-83
2021/12/11 04:26:28;;;;;;;61.53;23.50;;;;;;;;;;5110310;28;20044;-83
2021/12/11 04:28:54;;;;;;;61.58;23.00;;;;;;;;;;5093043;28;20046;-79
2021/12/11 04:31:23;;;;;;;50.40;22.20;;;;;;;;;;5111976;28;20050;-79
2021/12/11 04:33:50;;;;;;;52.97;21.75;;;;;;;;;;5110188;28;20118;-83
2021/12/11 04:36:21;;;;;;;55.45;21.73;;;;;;;;;;5110071;28;20051;-82
2021/12/11 04:38:48;;;;;;;53.13;22.17;;;;;;;;;;5109771;28;20419;-81
2021/12/11 04:41:18;;;;;;;59.58;24.02;;;;;;;;;;5109996;28;20270;-79
2021/12/11 04:43:46;;;;;;;55.92;24.00;;;;;;;;;;5110081;28;20069;-79
2021/12/11 04:46:13;;;;;;;66.55;23.80;;;;;;;;;;5110368;28;20052;-79
2021/12/11 04:48:54;;;;;;;58.80;23.10;;;;;;;;;;5110127;28;20044;-79
2021/12/11 04:51:29;;;;;;;67.68;25.65;;;;;;;;;;5093269;28;20073;-79
2021/12/11 05:02:13;;;;;;;62.38;23.45;;;;;;;;;;5104656;28;20530;-79
2021/12/11 05:04:49;;;;;;;63.25;25.33;;;;;;;;;;5103429;28;20093;-79
2021/12/11 05:10:19;;;;;;;61.00;23.52;;;;;;;;;;5109853;28;20491;-79
2021/12/11 05:12:47;;;;;;;63.22;24.42;;;;;;;;;;5074719;28;20052;-82
2021/12/11 05:15:33;;;;;;;63.15;25.13;;;;;;;;;;5109520;28;20036;-83
2021/12/11 05:18:01;;;;;;;65.60;24.98;;;;;;;;;;5109150;28;20040;-83
2021/12/11 05:20:29;;;;;;;72.43;26.08;;;;;;;;;;5092334;28;20063;-79
2021/12/11 05:22:56;;;;;;;63.35;24.98;;;;;;;;;;5109039;28;20067;-83
2021/12/11 05:25:22;;;;;;;67.78;26.98;;;;;;;;;;5108538;28;20127;-83
2021/12/11 05:27:48;;;;;;;67.40;26.23;;;;;;;;;;5109100;28;20498;-83
2021/12/11 05:30:20;;;;;;;65.80;25.52;;;;;;;;;;5109184;28;20126;-83
2021/12/11 05:32:46;;;;;;;81.13;28.58;;;;;;;;;;5109558;28;20479;-79
2021/12/11 05:35:13;;;;;;;74.55;28.55;;;;;;;;;;5092384;28;20039;-79
2021/12/11 05:37:39;;;;;;;78.28;29.05;;;;;;;;;;5109314;28;20050;-79
2021/12/11 05:40:15;;;;;;;76.47;27.40;;;;;;;;;;5109255;28;20046;-79
2021/12/11 05:42:41;;;;;;;66.63;26.45;;;;;;;;;;5109132;28;20040;-79
2021/12/11 05:45:07;;;;;;;79.03;29.08;;;;;;;;;;5109130;28;20127;-79
2021/12/11 05:47:34;;;;;;;74.72;27.38;;;;;;;;;;5109035;28;20043;-83
2021/12/11 05:50:00;;;;;;;64.60;24.80;;;;;;;;;;5109933;28;20115;-82
2021/12/11 05:52:26;;;;;;;65.00;25.58;;;;;;;;;;5108819;28;20040;-83
2021/12/11 05:54:53;;;;;;;75.63;25.63;;;;;;;;;;5108227;28;20042;-83
2021/12/11 05:57:21;;;;;;;68.13;26.70;;;;;;;;;;5108977;28;20039;-83
2021/12/11 05:59:48;;;;;;;66.63;24.90;;;;;;;;;;5091385;28;20044;-82
2021/12/11 06:02:23;;;;;;;75.93;27.55;;;;;;;;;;5091791;28;20043;-83
2021/12/11 06:04:50;;;;;;;66.32;25.85;;;;;;;;;;5108274;28;20050;-83
2021/12/11 06:07:17;;;;;;;70.18;27.08;;;;;;;;;;5109818;28;20281;-82
2021/12/11 06:09:46;;;;;;;64.38;23.92;;;;;;;;;;5091258;28;20085;-82
2021/12/11 06:12:13;;;;;;;53.55;23.38;;;;;;;;;;5108394;28;20071;-83
2021/12/11 06:14:40;;;;;;;64.15;24.67;;;;;;;;;;5109735;28;20059;-83
2021/12/11 06:17:07;;;;;;;54.88;23.05;;;;;;;;;;5108686;28;20036;-83
2021/12/11 06:19:34;;;;;;;57.67;23.13;;;;;;;;;;5108669;28;20031;-83
2021/12/11 06:22:00;;;;;;;58.45;23.42;;;;;;;;;;5091250;28;20055;-83
2021/12/11 06:24:27;;;;;;;54.72;22.10;;;;;;;;;;5108394;28;20480;-82
2021/12/11 06:26:54;;;;;;;58.78;22.88;;;;;;;;;;5108041;28;20039;-82
2021/12/11 06:29:21;;;;;;;52.95;22.77;;;;;;;;;;5090921;28;20035;-82
2021/12/11 06:31:48;;;;;;;55.72;22.65;;;;;;;;;;5091082;28;20046;-82
2021/12/11 06:34:14;;;;;;;50.97;22.38;;;;;;;;;;5109851;28;20028;-79
2021/12/11 06:36:41;;;;;;;54.13;22.98;;;;;;;;;;5125600;27;20085;-82
2021/12/11 06:39:11;;;;;;;52.70;23.98;;;;;;;;;;5112579;28;20625;-82
2021/12/11 06:41:38;;;;;;;59.65;23.67;;;;;;;;;;5113911;28;20685;-83
2021/12/11 06:44:06;;;;;;;61.03;23.85;;;;;;;;;;5095513;28;20082;-82
2021/12/11 06:46:33;;;;;;;51.03;21.33;;;;;;;;;;5095156;28;20403;-82
2021/12/11 06:48:59;;;;;;;62.63;24.05;;;;;;;;;;5094488;28;20146;-83
2021/12/11 06:51:25;;;;;;;60.92;24.70;;;;;;;;;;5113123;28;20075;-83
2021/12/11 06:53:54;;;;;;;59.83;24.50;;;;;;;;;;5112268;28;20474;-83
2021/12/11 06:56:21;;;;;;;58.33;23.67;;;;;;;;;;5111902;28;20042;-79
2021/12/11 06:58:47;;;;;;;60.17;24.17;;;;;;;;;;5113671;28;20039;-79
2021/12/11 07:01:13;;;;;;;60.35;23.25;;;;;;;;;;5113574;28;20140;-79
2021/12/11 07:03:40;;;;;;;58.50;22.63;;;;;;;;;;5112286;28;20054;-79
2021/12/11 07:06:07;;;;;;;57.90;23.50;;;;;;;;;;5112733;28;20054;-78
2021/12/11 07:08:35;;;;;;;57.03;23.77;;;;;;;;;;5112480;28;20058;-79
2021/12/11 07:11:01;;;;;;;63.70;27.25;;;;;;;;;;5095651;28;20131;-79
2021/12/11 07:13:28;;;;;;;64.45;26.58;;;;;;;;;;5095020;28;20035;-79
2021/12/11 07:15:56;;;;;;;55.20;23.30;;;;;;;;;;5112988;28;20053;-79
2021/12/11 07:18:22;;;;;;;60.53;24.33;;;;;;;;;;5094908;28;20035;-79
2021/12/11 07:20:48;;;;;;;65.05;25.70;;;;;;;;;;5094792;28;20150;-79
2021/12/11 07:23:15;;;;;;;70.57;28.15;;;;;;;;;;5113562;28;20035;-79
2021/12/11 07:26:01;;;;;;;63.17;23.92;;;;;;;;;;5113063;28;20036;-79
2021/12/11 07:28:27;;;;;;;;;;;;;;;;;;5095262;28;20031;-79
2021/12/11 07:30:55;;;;;;;49.63;18.67;;;;;;;;;;5111389;28;20433;-79
2021/12/11 07:33:21;;;;;;;61.42;23.80;;;;;;;;;;5095036;28;20039;-79
2021/12/11 07:35:48;;;;;;;60.53;24.50;;;;;;;;;;5111311;28;20483;-79
2021/12/11 07:38:15;;;;;;;56.85;23.13;;;;;;;;;;5113118;28;20054;-79
2021/12/11 07:40:43;;;;;;;65.32;24.80;;;;;;;;;;5111231;28;20052;-79
2021/12/11 07:43:10;;;;;;;60.85;22.92;;;;;;;;;;5111665;28;20052;-79
2021/12/11 07:45:36;;;;;;;61.95;24.17;;;;;;;;;;5112302;28;20040;-79
2021/12/11 07:48:03;;;;;;;58.63;23.08;;;;;;;;;;5111788;28;20043;-79
2021/12/11 07:50:29;;;;;;;53.35;21.50;;;;;;;;;;5112160;28;20040;-79
2021/12/11 07:52:55;;;;;;;57.50;22.95;;;;;;;;;;5112436;28;20405;-79
2021/12/11 07:55:21;;;;;;;54.28;22.65;;;;;;;;;;5094461;28;20193;-79
2021/12/11 07:57:48;;;;;;;58.80;22.70;;;;;;;;;;5094029;28;20118;-83
2021/12/11 08:00:16;;;;;;;54.92;23.67;;;;;;;;;;5110670;28;20089;-84
2021/12/11 08:02:42;;;;;;;62.08;23.90;;;;;;;;;;5110587;28;20138;-79
2021/12/11 08:05:09;;;;;;;59.83;23.67;;;;;;;;;;5094366;28;20389;-83
2021/12/11 08:07:35;;;;;;;61.88;25.35;;;;;;;;;;5093395;28;20031;-83
2021/12/11 08:10:01;;;;;;;63.63;25.88;;;;;;;;;;5110610;28;20039;-84
2021/12/11 08:12:27;;;;;;;68.38;27.48;;;;;;;;;;5110480;28;20047;-83
2021/12/11 08:14:54;;;;;;;73.53;30.35;;;;;;;;;;5110569;28;20035;-84
2021/12/11 08:17:20;;;;;;;85.20;38.38;;;;;;;;;;5093374;28;20078;-84
2021/12/11 08:19:46;;;;;;;329.02;103.80;;;;;;;;;;5110075;28;20088;-83
2021/12/11 08:22:13;;;;;;;434.48;146.20;;;;;;;;;;5110464;28;20510;-83
2021/12/11 08:24:39;;;;;;;250.48;98.32;;;;;;;;;;5111067;28;20389;-83
2021/12/11 08:27:11;;;;;;;123.10;54.90;;;;;;;;;;5093053;28;20077;-83
2021/12/11 08:29:38;;;;;;;82.35;39.20;;;;;;;;;;5110882;28;20031;-83
2021/12/11 08:32:05;;;;;;;52.30;28.50;;;;;;;;;;5110199;28;20483;-77
2021/12/11 08:34:32;;;;;;;50.28;24.50;;;;;;;;;;5093315;28;20047;-77
2021/12/11 08:36:59;;;;;;;198.63;31.10;;;;;;;;;;5127416;27;20046;-77
2021/12/11 08:39:26;;;;;;;36.17;20.27;;;;;;;;;;5110814;28;20084;-81
2021/12/11 08:41:53;;;;;;;31.50;18.42;;;;;;;;;;5110693;28;20505;-78
2021/12/11 08:44:21;;;;;;;31.25;17.73;;;;;;;;;;5093316;28;20036;-78
2021/12/11 08:46:49;;;;;;;32.42;18.45;;;;;;;;;;5076564;28;20043;-77
2021/12/11 08:49:17;;;;;;;30.40;18.95;;;;;;;;;;5093156;28;20075;-82
2021/12/11 08:51:55;;;;;;;30.33;19.13;;;;;;;;;;5092467;28;20059;-82
2021/12/11 08:54:22;;;;;;;28.98;17.30;;;;;;;;;;5110194;28;20387;-82
2021/12/11 08:56:48;;;;;;;27.33;17.20;;;;;;;;;;5109638;28;20118;-82
2021/12/11 08:59:16;;;;;;;29.67;18.27;;;;;;;;;;5092965;28;20043;-77
2021/12/11 09:02:02;;;;;;;31.02;16.85;;;;;;;;;;5092159;28;20529;-82
2021/12/11 09:04:28;;;;;;;30.35;16.48;;;;;;;;;;5097073;28;20059;-77
2021/12/11 09:07:07;;;;;;;32.63;18.17;;;;;;;;;;5110210;28;20399;-76
2021/12/11 09:09:40;;;;;;;29.88;16.70;;;;;;;;;;5110087;28;20050;-77
2021/12/11 09:12:09;;;;;;;26.63;15.80;;;;;;;;;;5109984;28;20049;-82
2021/12/11 09:14:44;;;;;;;28.30;17.25;;;;;;;;;;5110901;28;20441;-81
2021/12/11 09:17:20;;;;;;;32.30;16.67;;;;;;;;;;5109328;28;20044;-82
2021/12/11 09:19:49;;;;;;;30.05;16.33;;;;;;;;;;5108848;28;20042;-81
2021/12/11 09:22:25;;;;;;;25.73;15.23;;;;;;;;;;5109109;28;20075;-81
2021/12/11 09:25:30;;;;;;;29.00;16.33;;;;;;;;;;5109877;28;20040;-82
2021/12/11 09:27:56;;;;;;;47.15;16.48;;;;;;;;;;5026995;28;20049;-82
2021/12/11 09:30:29;;;;;;;41.33;17.27;;;;;;;;;;5010402;28;20045;-81
2021/12/11 09:32:57;;;;;;;42.13;18.05;;;;;;;;;;5060276;28;20044;-81
2021/12/11 09:35:27;;;;;;;42.92;17.30;;;;;;;;;;5108778;28;20054;-81
2021/12/11 09:37:55;;;;;;;35.78;17.20;;;;;;;;;;5108508;28;20051;-81
2021/12/11 09:40:27;;;;;;;38.35;17.38;;;;;;;;;;5092007;28;20036;-81
2021/12/11 09:42:53;;;;;;;53.15;18.60;;;;;;;;;;5109733;28;20043;-81
2021/12/11 09:45:22;;;;;;;46.40;17.20;;;;;;;;;;5108909;28;20042;-80
2021/12/11 09:47:51;;;;;;;58.00;21.30;;;;;;;;;;5108645;28;20486;-80
2021/12/11 09:50:20;;;;;;;68.32;22.67;;;;;;;;;;5108827;28;20061;-80
2021/12/11 09:52:47;;;;;;;72.80;25.13;;;;;;;;;;5109658;28;20154;-80
2021/12/11 09:55:16;;;;;;;148.45;31.55;;;;;;;;;;5110145;28;20047;-80
2021/12/11 09:57:44;;;;;;;189.68;37.95;;;;;;;;;;5109553;28;20058;-80
2021/12/11 10:00:13;;;;;;;248.73;35.22;;;;;;;;;;5110085;28;20054;-80
2021/12/11 10:02:39;;;;;;;220.18;33.35;;;;;;;;;;5108282;28;20099;-81
2021/12/11 10:05:07;;;;;;;119.65;29.35;;;;;;;;;;5091681;28;20043;-81
2021/12/11 10:07:39;;;;;;;117.38;29.25;;;;;;;;;;5108785;28;20046;-82
2021/12/11 10:10:11;;;;;;;85.57;27.17;;;;;;;;;;5108904;28;20395;-81
2021/12/11 10:12:40;;;;;;;97.72;29.92;;;;;;;;;;5110684;28;20410;-81
2021/12/11 10:15:06;;;;;;;127.35;34.50;;;;;;;;;;5113258;28;20115;-81
2021/12/11 10:17:37;;;;;;;167.00;36.05;;;;;;;;;;5095993;28;20487;-81
2021/12/11 10:20:09;;;;;;;138.05;38.28;;;;;;;;;;5112264;28;20051;-81
2021/12/11 10:22:37;;;;;;;179.60;40.15;;;;;;;;;;5113029;28;20538;-81
2021/12/11 10:25:06;;;;;;;151.90;39.03;;;;;;;;;;5112150;28;20079;-81
2021/12/11 10:27:32;;;;;;;196.10;44.55;;;;;;;;;;5112810;28;20096;-81
2021/12/11 10:29:59;;;;;;;195.85;38.78;;;;;;;;;;5111693;28;20251;-81
2021/12/11 10:32:28;;;;;;;159.35;38.97;;;;;;;;;;5112166;28;20392;-81
2021/12/11 10:34:56;;;;;;;150.45;37.28;;;;;;;;;;5111915;28;20362;-81
2021/12/11 10:37:27;;;;;;;166.55;33.17;;;;;;;;;;5112339;28;20039;-81
2021/12/11 10:39:55;;;;;;;226.50;35.58;;;;;;;;;;5111923;28;20541;-80
2021/12/11 10:42:21;;;;;;;142.00;31.10;;;;;;;;;;5112398;28;20050;-81
2021/12/11 10:44:49;;;;;;;163.63;30.70;;;;;;;;;;5112337;28;20533;-81
2021/12/11 10:47:20;;;;;;;139.43;25.00;;;;;;;;;;5112285;28;20044;-81
2021/12/11 10:49:48;;;;;;;120.30;23.30;;;;;;;;;;5111631;28;20040;-81
2021/12/11 10:52:29;;;;;;;137.93;22.23;;;;;;;;;;5112027;28;20424;-81
2021/12/11 10:55:00;;;;;;;163.68;24.08;;;;;;;;;;5111607;28;20040;-81
2021/12/11 10:57:26;;;;;;;127.90;20.55;;;;;;;;;;5112637;28;20047;-81
2021/12/11 10:59:54;;;;;;;101.20;21.90;;;;;;;;;;5114152;28;20069;-81
2021/12/11 11:02:23;;;;;;;106.57;18.88;;;;;;;;;;5114583;28;20499;-81
2021/12/11 11:04:55;;;;;;;113.82;18.77;;;;;;;;;;5096060;28;20127;-81
2021/12/11 11:07:22;;;;;;;95.15;20.02;;;;;;;;;;5112798;28;20043;-81
2021/12/11 11:09:48;;;;;;;90.53;18.80;;;;;;;;;;5094663;28;20048;-81
2021/12/11 11:12:15;;;;;;;119.57;20.88;;;;;;;;;;5129277;27;20051;-76
2021/12/11 11:14:42;;;;;;;77.22;17.73;;;;;;;;;;5111620;28;20115;-76
2021/12/11 11:17:11;;;;;;;83.63;18.20;;;;;;;;;;5112174;28;20494;-76
2021/12/11 11:19:40;;;;;;;83.80;16.92;;;;;;;;;;5111955;28;20071;-76
2021/12/11 11:22:07;;;;;;;81.20;17.42;;;;;;;;;;5112438;28;20136;-76
2021/12/11 11:24:36;;;;;;;82.03;17.88;;;;;;;;;;5111230;28;20074;-75
2021/12/11 11:27:03;;;;;;;66.93;17.48;;;;;;;;;;5111491;28;20444;-75
2021/12/11 11:29:30;;;;;;;51.88;18.60;;;;;;;;;;5111020;28;20051;-76
2021/12/11 11:31:58;;;;;;;44.65;18.55;;;;;;;;;;5093678;28;20039;-76
2021/12/11 11:34:26;;;;;;;48.47;18.83;;;;;;;;;;5111437;28;20063;-76
2021/12/11 11:36:53;;;;;;;55.20;19.02;;;;;;;;;;5110865;28;20047;-76
2021/12/11 11:39:20;;;;;;;49.75;19.73;;;;;;;;;;5111512;28;20382;-76
2021/12/11 11:41:48;;;;;;;42.53;19.67;;;;;;;;;;5110698;28;20134;-76
2021/12/11 11:44:15;;;;;;;36.75;19.05;;;;;;;;;;5111282;28;20151;-76
2021/12/11 11:46:42;;;;;;;41.90;18.77;;;;;;;;;;5111694;28;20077;-76
2021/12/11 11:49:09;;;;;;;34.58;18.88;;;;;;;;;;5110645;28;20043;-76
2021/12/11 11:51:43;;;;;;;42.42;18.48;;;;;;;;;;5110710;28;20043;-76
2021/12/11 11:54:10;;;;;;;41.92;19.88;;;;;;;;;;5111632;28;20395;-76
2021/12/11 11:56:38;;;;;;;45.15;21.35;;;;;;;;;;5110922;28;20047;-76
2021/12/11 11:59:06;;;;;;;45.80;23.50;;;;;;;;;;5110488;28;20481;-76
2021/12/11 12:01:38;;;;;;;45.15;23.38;;;;;;;;;;5111125;28;20035;-77
2021/12/11 12:04:05;;;;;;;48.42;24.77;;;;;;;;;;5110907;28;20078;-76
2021/12/11 12:06:34;;;;;;;43.63;25.10;;;;;;;;;;5110949;28;20042;-77
2021/12/11 12:09:05;;;;;;;45.60;25.83;;;;;;;;;;5111726;28;20054;-76
2021/12/11 12:11:31;;;;;;;46.88;25.58;;;;;;;;;;5093304;28;20077;-77
2021/12/11 12:13:58;;;;;;;67.05;33.55;;;;;;;;;;5093328;28;20039;-77
2021/12/11 12:16:25;;;;;;;46.05;25.75;;;;;;;;;;5112078;28;20035;-81
2021/12/11 12:18:51;;;;;;;46.38;24.85;;;;;;;;;;5110527;28;20494;-80
2021/12/11 12:21:18;;;;;;;48.55;25.38;;;;;;;;;;5093324;28;20055;-81
2021/12/11 12:23:45;;;;;;;50.40;26.27;;;;;;;;;;5109800;28;20074;-81
2021/12/11 12:26:12;;;;;;;46.75;26.25;;;;;;;;;;5110389;28;20561;-81
2021/12/11 12:28:40;;;;;;;55.42;28.05;;;;;;;;;;5111762;28;20039;-81
2021/12/11 12:31:14;;;;;;;53.25;27.15;;;;;;;;;;5110879;28;20051;-81
2021/12/11 12:33:40;;;;;;;51.53;26.63;;;;;;;;;;5110453;28;20069;-81
2021/12/11 12:36:07;;;;;;;55.53;26.88;;;;;;;;;;5093521;28;20483;-81
2021/12/11 12:38:33;;;;;;;51.00;26.33;;;;;;;;;;5110259;28;20058;-81
2021/12/11 12:41:08;;;;;;;54.92;27.02;;;;;;;;;;5110977;28;20043;-80
2021/12/11 12:44:16;;;;;;;57.17;27.77;;;;;;;;;;5092982;28;20044;-80
2021/12/11 12:46:47;;;;;;;55.80;26.75;;;;;;;;;;5110246;28;20043;-80
2021/12/11 12:49:14;;;;;;;58.53;27.80;;;;;;;;;;5110123;28;20050;-80
2021/12/11 12:51:40;;;;;;;56.92;27.48;;;;;;;;;;5110048;28;20051;-81
2021/12/11 12:54:08;;;;;;;55.63;26.45;;;;;;;;;;5110938;28;20550;-80
2021/12/11 12:56:39;;;;;;;51.63;26.00;;;;;;;;;;5110167;28;20040;-81
2021/12/11 12:59:07;;;;;;;57.03;25.83;;;;;;;;;;5110985;28;20062;-80
2021/12/11 13:01:39;;;;;;;51.50;25.08;;;;;;;;;;5092805;28;20039;-80
2021/12/11 13:04:06;;;;;;;53.20;24.02;;;;;;;;;;5109855;28;20052;-81
2021/12/11 13:06:34;;;;;;;53.00;24.40;;;;;;;;;;5109787;28;20082;-81
2021/12/11 13:09:08;;;;;;;48.45;24.02;;;;;;;;;;5092561;28;20075;-80
2021/12/11 13:11:45;;;;;;;52.28;24.40;;;;;;;;;;5110204;28;20048;-80
2021/12/11 13:14:11;;;;;;;54.33;24.48;;;;;;;;;;5110802;28;20043;-80
2021/12/11 13:16:40;;;;;;;50.95;23.67;;;;;;;;;;5109860;28;20040;-80
2021/12/11 13:19:06;;;;;;;51.35;24.15;;;;;;;;;;5092141;28;20040;-80
2021/12/11 13:21:37;;;;;;;58.67;24.58;;;;;;;;;;5109564;28;20112;-80
2021/12/11 13:24:04;;;;;;;53.83;23.60;;;;;;;;;;5109252;28;20054;-80
2021/12/11 13:26:32;;;;;;;52.70;24.38;;;;;;;;;;5111276;28;20040;-80
2021/12/11 13:28:59;;;;;;;51.10;23.58;;;;;;;;;;5109526;28;20120;-80
2021/12/11 13:31:29;;;;;;;51.42;23.63;;;;;;;;;;5109692;28;20040;-80
2021/12/11 13:33:55;;;;;;;51.28;24.60;;;;;;;;;;5111456;28;20368;-80
2021/12/11 13:36:22;;;;;;;52.30;24.75;;;;;;;;;;5110792;28;20039;-77
2021/12/11 13:38:48;;;;;;;55.03;25.27;;;;;;;;;;5108989;28;20043;-75
2021/12/11 13:41:17;;;;;;;69.70;30.52;;;;;;;;;;5109306;28;20039;-80
2021/12/11 13:43:43;;;;;;;55.33;25.23;;;;;;;;;;5109369;28;20046;-80
2021/12/11 13:46:10;;;;;;;56.80;25.23;;;;;;;;;;5109231;28;20444;-80
2021/12/11 13:48:37;;;;;;;56.80;26.73;;;;;;;;;;5109826;28;20380;-79
2021/12/11 13:51:06;;;;;;;62.83;26.10;;;;;;;;;;5109565;28;20040;-77
2021/12/11 13:53:33;;;;;;;54.70;24.83;;;;;;;;;;5109430;28;20122;-80
2021/12/11 13:56:00;;;;;;;55.10;24.20;;;;;;;;;;5126757;27;20494;-80
2021/12/11 13:58:26;;;;;;;53.63;24.73;;;;;;;;;;5109915;28;20093;-77
2021/12/11 14:00:58;;;;;;;61.28;24.98;;;;;;;;;;5126029;27;20059;-80
2021/12/11 14:03:25;;;;;;;60.38;25.98;;;;;;;;;;5092087;28;20156;-80
2021/12/11 14:05:52;;;;;;;60.38;25.95;;;;;;;;;;5110356;28;20043;-79
2021/12/11 14:08:19;;;;;;;54.70;24.15;;;;;;;;;;5109589;28;20084;-79
2021/12/11 14:10:46;;;;;;;57.97;25.88;;;;;;;;;;5126983;27;20036;-80
2021/12/11 14:13:13;;;;;;;57.42;25.70;;;;;;;;;;5109289;28;20043;-80
2021/12/11 14:15:41;;;;;;;60.33;26.67;;;;;;;;;;5109993;28;20047;-80
2021/12/11 14:18:07;;;;;;;58.00;26.02;;;;;;;;;;5109266;28;20040;-76
2021/12/11 14:20:34;;;;;;;59.17;26.60;;;;;;;;;;5109498;28;20039;-76
2021/12/11 14:23:01;;;;;;;74.97;33.33;;;;;;;;;;5109779;28;20041;-77
2021/12/11 14:25:32;;;;;;;66.50;30.10;;;;;;;;;;5091531;28;20058;-77
2021/12/11 14:27:58;;;;;;;67.93;29.05;;;;;;;;;;5108761;28;20047;-77
2021/12/11 14:30:24;;;;;;;60.88;27.73;;;;;;;;;;5108659;28;20036;-80
2021/12/11 14:32:54;;;;;;;65.05;29.20;;;;;;;;;;5109103;28;20078;-80
2021/12/11 14:35:21;;;;;;;61.00;29.15;;;;;;;;;;5108131;28;20078;-77
2021/12/11 14:37:47;;;;;;;66.10;28.88;;;;;;;;;;5108794;28;20440;-81